Airfield :
LOGIN :

Register | Disclaimer

   EN    FR    IT 

 










Legend :    VFR   Marginal VFR   IFR   Intensive IFR   Very Intensive IFR
Visi :
Ceiling :
>= 8 km
>= 3000ft
5 to 8 km
1000 to 3000 ft
1500m to 5 km
500 to 1000 ft
800 to 1500m
200 to 500 ft
< 800m
< 200 ft
Symbols :   Thunderstorms  Fog  Heavy snow  Heavy precipitations  Wind > 20 kt
SIGMETs :     Misc.  Thunderstorms  Icing  Turbulence  Mountain Waves  Volcanic Ashes







- Airport Elevation : 1910 ft
- IATA code : RDZ
- Download approach charts


LFCR - Rodez

CURRENT METAR :
  • 240800Z AUTO 33005KT 290V360 9999 OVC022 19/15 Q1022 NOSIG

EXPIRED METARs :
  • 240730Z AUTO 31006KT 270V330 9999 OVC024 19/15 Q1022 NOSIG
  • 240700Z AUTO 32004KT 280V340 9999 FEW012 OVC024 19/15 Q1022 NOSIG
  • 240630Z AUTO 30004KT 270V330 9999 OVC025 18/15 Q1023 NOSIG
  • 240600Z AUTO VRB02KT 9999 OVC025 18/15 Q1023 NOSIG
  • 240530Z AUTO 29004KT 9999 FEW009 OVC026 18/15 Q1023 NOSIG

TAF AMD TAF LFCR
Valid from the 23 at 19:00 until the 24 at 18:00 UTC


231909Z 2319/2418 29008KT 9999 BKN015
TEMPO 2319/2403 OVC010
BECMG 2407/2409 CAVOK
No reported NOTAMs for that airfield.



MET'MAP, your aeronautical weather chart ! - Copyright ORBIFLY December 2007 - Disclaimer

ORBIFLY MET'MAP TEAM :

Programming & Development : Alexandra Zaïnal
Concept & Development : Baudouin d'Aumeries
Co-Development & Prog : Marc-Olivier Méhu
Technical & hardware support : Manuel Goepfert

Contact : metmap@orbifly.com




SOURCES & CREDITS :

   NOAA